^^
Datos históricos de la estación: Murcia-Puente Tocinos
Diario Informe para Enero 4, 2019 Unidades:  Métrico    Inglés   Ambas
Diario Semanal Mensual Anual Configurable
  Máximo: Mínimo: Media:
Temperatura: 16.3 °C 4.4 °C 9.4 °C
Punto de rocio: 8.3 °C 2.8 °C 5.7 °C
Humedad: 92% 52% 79%
Velocidad viento: 9.7km/h 0.0km/h 4.8km/h
Racha viento: 16.7km/h - -
Viento- - SSW
Presión: 1030.7 hPa 1027.3 hPa -
Precipitación: 0.0 mm    
Historical Graphs
 
 
Tabla de datos para Enero 4, 2019
Hora Temperatura Punto de rocio Presión Viento Velocidad viento Racha viento Humedad Intensidad lluvia(por hora) Nubes
00:00 7.6 °C 5.7 °C 1028.2 hPa South 4.8 km/h 8.0 km/h 88% 0.0 mm CLR
00:05 7.4 °C 5.4 °C 1028.1 hPa South 5.8 km/h 11.1 km/h 87% 0.0 mm CLR
00:10 7.4 °C 5.6 °C 1028.1 hPa SSW 6.4 km/h 7.4 km/h 88% 0.0 mm CLR
00:15 7.4 °C 5.7 °C 1028.1 hPa SSW 6.4 km/h 7.4 km/h 89% 0.0 mm CLR
00:20 7.5 °C 5.7 °C 1028.0 hPa South 5.8 km/h 11.1 km/h 88% 0.0 mm CLR
00:25 7.4 °C 5.6 °C 1028.0 hPa SSW 5.8 km/h 11.1 km/h 88% 0.0 mm CLR
00:30 7.5 °C 5.8 °C 1028.0 hPa SW 6.9 km/h 9.3 km/h 89% 0.0 mm CLR
00:35 7.6 °C 5.9 °C 1027.7 hPa SSW 6.9 km/h 8.4 km/h 89% 0.0 mm CLR
00:40 7.6 °C 5.9 °C 1027.7 hPa SSW 6.4 km/h 5.6 km/h 89% 0.0 mm CLR
00:45 7.7 °C 5.8 °C 1027.7 hPa SW 6.4 km/h 7.4 km/h 88% 0.0 mm CLR
00:50 7.7 °C 5.8 °C 1027.8 hPa WSW 3.9 km/h 9.3 km/h 88% 0.0 mm CLR
00:55 7.6 °C 5.6 °C 1027.8 hPa WSW 3.9 km/h 7.4 km/h 87% 0.0 mm CLR
01:00 7.4 °C 5.6 °C 1027.8 hPa WSW 3.2 km/h 9.7 km/h 88% 0.0 mm CLR
01:05 7.4 °C 5.6 °C 1027.8 hPa SW 4.7 km/h 7.4 km/h 88% 0.0 mm CLR
01:10 7.5 °C 5.7 °C 1027.8 hPa SW 5.0 km/h 8.4 km/h 88% 0.0 mm CLR
01:15 7.6 °C 5.7 °C 1027.8 hPa SW 5.0 km/h 7.4 km/h 88% 0.0 mm CLR
01:20 7.7 °C 5.8 °C 1027.8 hPa South 5.8 km/h 7.4 km/h 88% 0.0 mm CLR
01:25 7.7 °C 5.8 °C 1027.8 hPa South 5.8 km/h 7.4 km/h 88% 0.0 mm CLR
01:30 7.8 °C 5.9 °C 1027.8 hPa SW 5.0 km/h 11.1 km/h 88% 0.0 mm CLR
01:35 7.9 °C 6.1 °C 1027.9 hPa SW 5.0 km/h 11.1 km/h 88% 0.0 mm CLR
01:40 7.9 °C 6.1 °C 1027.9 hPa SSW 7.6 km/h 9.3 km/h 88% 0.0 mm CLR
01:45 7.9 °C 5.9 °C 1027.9 hPa SSW 7.6 km/h 9.3 km/h 87% 0.0 mm CLR
01:50 7.9 °C 5.9 °C 1028.0 hPa South 5.8 km/h 3.7 km/h 87% 0.0 mm CLR
01:55 7.8 °C 5.6 °C 1028.0 hPa South 5.8 km/h   86% 0.0 mm CLR
02:00 7.6 °C 5.4 °C 1028.0 hPa South 1.6 km/h 8.0 km/h 86% 0.0 mm CLR
02:05 7.3 °C 5.3 °C 1027.9 hPa South 2.3 km/h 9.3 km/h 87% 0.0 mm CLR
02:10 7.0 °C 5.0 °C 1027.9 hPa South 6.9 km/h 9.3 km/h 87% 0.0 mm CLR
02:15 6.7 °C 4.8 °C 1027.9 hPa South 6.9 km/h 9.3 km/h 88% 0.0 mm CLR
02:20 6.6 °C 4.8 °C 1027.9 hPa South 6.4 km/h 9.5 km/h 88% 0.0 mm CLR
02:25 6.5 °C 4.8 °C 1027.9 hPa SSE 6.4 km/h 7.4 km/h 89% 0.0 mm CLR
02:30 6.4 °C 4.7 °C 1027.9 hPa SE 5.8 km/h 9.3 km/h 89% 0.0 mm CLR
02:35 6.2 °C 4.5 °C 1028.1 hPa SSE 5.8 km/h 7.4 km/h 89% 0.0 mm CLR
02:40 6.2 °C 4.7 °C 1028.1 hPa South 6.4 km/h 7.4 km/h 90% 0.0 mm CLR
02:45 6.2 °C 4.7 °C 1028.1 hPa South 6.4 km/h 5.6 km/h 90% 0.0 mm CLR
02:50 6.2 °C 4.7 °C 1028.1 hPa South 4.7 km/h 8.4 km/h 90% 0.0 mm CLR
02:55 6.2 °C 4.7 °C 1028.1 hPa South 4.7 km/h 7.4 km/h 90% 0.0 mm CLR
03:00 6.2 °C 4.7 °C 1028.1 hPa South 4.8 km/h 8.0 km/h 90% 0.0 mm CLR
03:05 6.2 °C 4.7 °C 1028.4 hPa South 5.8 km/h 7.4 km/h 90% 0.0 mm CLR
03:10 6.2 °C 4.7 °C 1028.4 hPa South 4.7 km/h 7.4 km/h 90% 0.0 mm CLR
03:15 6.2 °C 4.7 °C 1028.4 hPa South 4.7 km/h 7.4 km/h 90% 0.0 mm CLR
03:20 6.2 °C 4.7 °C 1028.4 hPa South 5.8 km/h 9.3 km/h 90% 0.0 mm CLR
03:25 6.2 °C 4.7 °C 1028.4 hPa South 5.8 km/h 5.0 km/h 90% 0.0 mm CLR
03:30 6.2 °C 4.7 °C 1028.4 hPa South 4.7 km/h 5.6 km/h 90% 0.0 mm CLR
03:35 6.2 °C 4.7 °C 1028.4 hPa South 4.7 km/h 7.4 km/h 90% 0.0 mm CLR
03:40 6.2 °C 4.7 °C 1028.4 hPa SSW 5.0 km/h 9.3 km/h 90% 0.0 mm CLR
03:45 6.2 °C 4.7 °C 1028.4 hPa South 5.0 km/h 9.3 km/h 90% 0.0 mm CLR
03:50 6.1 °C 4.6 °C 1028.2 hPa SSW 6.4 km/h 9.3 km/h 90% 0.0 mm CLR
03:55 6.2 °C 4.7 °C 1028.2 hPa SSW 6.4 km/h 11.1 km/h 90% 0.0 mm CLR
04:00 6.2 °C 4.7 °C 1028.2 hPa South 8.0 km/h 11.3 km/h 90% 0.0 mm CLR
04:05 6.2 °C 4.7 °C 1028.2 hPa South 6.9 km/h 9.3 km/h 90% 0.0 mm CLR
04:10 6.2 °C 4.7 °C 1028.2 hPa South 6.9 km/h 7.6 km/h 90% 0.0 mm CLR
04:15 6.2 °C 4.7 °C 1028.2 hPa South 6.9 km/h 11.1 km/h 90% 0.0 mm CLR
04:20 6.2 °C 4.7 °C 1028.0 hPa South 7.6 km/h 9.3 km/h 90% 0.0 mm CLR
04:25 6.2 °C 4.7 °C 1028.0 hPa SSW 7.6 km/h 11.1 km/h 90% 0.0 mm CLR
04:30 6.2 °C 4.7 °C 1028.0 hPa SW 6.9 km/h 9.3 km/h 90% 0.0 mm CLR
04:35 6.2 °C 4.7 °C 1027.9 hPa SW 6.9 km/h 11.1 km/h 90% 0.0 mm CLR
04:40 6.2 °C 4.7 °C 1027.9 hPa SW 6.4 km/h 7.4 km/h 90% 0.0 mm CLR
04:45 6.2 °C 4.7 °C 1027.9 hPa SSW 6.4 km/h 7.4 km/h 90% 0.0 mm CLR
04:50 6.2 °C 4.7 °C 1027.8 hPa SSW 5.8 km/h 7.4 km/h 90% 0.0 mm CLR
04:55 6.2 °C 4.7 °C 1027.8 hPa SW 5.8 km/h 9.3 km/h 90% 0.0 mm CLR
05:00 6.1 °C 4.6 °C 1027.8 hPa SW 8.0 km/h 9.7 km/h 90% 0.0 mm CLR
05:05 6.1 °C 4.6 °C 1027.5 hPa SW 6.4 km/h 5.6 km/h 90% 0.0 mm CLR
05:10 6.1 °C 4.6 °C 1027.5 hPa SW 3.9 km/h   90% 0.0 mm CLR
05:15 6.0 °C 4.5 °C 1027.5 hPa SW 3.9 km/h   90% 0.0 mm CLR
05:20 5.9 °C 4.2 °C 1027.6 hPa Calm     89% 0.0 mm CLR
05:25 5.8 °C 4.1 °C 1027.6 hPa Calm     89% 0.0 mm CLR
05:30 5.8 °C 4.3 °C 1027.6 hPa Calm   5.6 km/h 90% 0.0 mm CLR
05:35 5.7 °C 4.2 °C 1027.7 hPa Calm   5.8 km/h 90% 0.0 mm CLR
05:40 5.7 °C 4.2 °C 1027.7 hPa South 3.2 km/h 7.4 km/h 90% 0.0 mm CLR
05:45 5.7 °C 4.2 °C 1027.7 hPa SW 3.2 km/h 9.3 km/h 90% 0.0 mm CLR
05:50 5.7 °C 4.2 °C 1027.5 hPa SW 5.0 km/h 9.3 km/h 90% 0.0 mm CLR
05:55 5.7 °C 4.3 °C 1027.5 hPa SSW 5.0 km/h 9.3 km/h 91% 0.0 mm CLR
06:00 5.7 °C 4.3 °C 1027.5 hPa SSW 8.0 km/h 9.7 km/h 91% 0.0 mm CLR
06:05 5.7 °C 4.3 °C 1027.8 hPa SSW 6.9 km/h 5.6 km/h 91% 0.0 mm CLR
06:10 5.7 °C 4.3 °C 1027.8 hPa SSW 5.0 km/h 3.9 km/h 91% 0.0 mm CLR
06:15 5.8 °C 4.4 °C 1027.8 hPa SSW 5.0 km/h 9.3 km/h 91% 0.0 mm CLR
06:20 5.9 °C 4.6 °C 1027.9 hPa SSW 4.7 km/h 7.4 km/h 91% 0.0 mm CLR
06:25 5.9 °C 4.6 °C 1027.9 hPa SW 4.7 km/h 7.4 km/h 91% 0.0 mm CLR
06:30 6.0 °C 4.5 °C 1027.9 hPa SW 4.7 km/h 5.6 km/h 90% 0.0 mm CLR
06:35 6.0 °C 4.5 °C 1028.0 hPa SW 4.7 km/h 7.4 km/h 90% 0.0 mm CLR
06:40 6.0 °C 4.5 °C 1028.0 hPa SW 4.7 km/h 5.6 km/h 90% 0.0 mm CLR
06:45 6.0 °C 4.3 °C 1028.0 hPa SW 4.7 km/h   89% 0.0 mm CLR
06:50 5.9 °C 4.2 °C 1027.9 hPa SW 2.9 km/h   89% 0.0 mm CLR
06:55 5.7 °C 4.0 °C 1027.9 hPa South 2.9 km/h 7.4 km/h 89% 0.0 mm CLR
07:00 5.4 °C 3.6 °C 1027.9 hPa SSW 3.2 km/h 8.0 km/h 88% 0.0 mm CLR
07:05 5.1 °C 3.4 °C 1028.2 hPa SSE 2.9 km/h 7.4 km/h 89% 0.0 mm CLR
07:10 4.9 °C 3.4 °C 1028.2 hPa SSE 4.7 km/h 3.7 km/h 90% 0.0 mm CLR
07:15 4.8 °C 3.3 °C 1028.2 hPa South 4.7 km/h 7.4 km/h 90% 0.0 mm CLR
07:20 4.8 °C 3.4 °C 1028.1 hPa SSW 2.9 km/h 9.3 km/h 91% 0.0 mm CLR
07:25 4.8 °C 3.4 °C 1028.1 hPa South 2.9 km/h 9.3 km/h 91% 0.0 mm CLR
07:30 4.8 °C 3.4 °C 1028.1 hPa South 6.4 km/h 9.3 km/h 91% 0.0 mm CLR
07:35 4.9 °C 3.7 °C 1028.2 hPa SSW 6.4 km/h 9.3 km/h 92% 0.0 mm CLR
07:40 5.1 °C 3.9 °C 1028.2 hPa SW 7.6 km/h 9.3 km/h 92% 0.0 mm CLR
07:45 5.2 °C 3.8 °C 1028.2 hPa SW 7.6 km/h 7.4 km/h 91% 0.0 mm CLR
07:50 5.3 °C 3.9 °C 1028.4 hPa SW 5.8 km/h 3.7 km/h 91% 0.0 mm CLR
07:55 5.3 °C 3.9 °C 1028.4 hPa SW 5.8 km/h 5.6 km/h 91% 0.0 mm CLR
08:00 5.4 °C 3.9 °C 1028.4 hPa SW 3.2 km/h 8.0 km/h 90% 0.0 mm CLR
08:05 5.2 °C 3.4 °C 1028.6 hPa SE 2.9 km/h 7.4 km/h 88% 0.0 mm CLR
08:10 4.9 °C 3.1 °C 1028.6 hPa SE 3.2 km/h   88% 0.0 mm CLR
08:15 4.7 °C 3.1 °C 1028.6 hPa SSE 3.2 km/h 7.4 km/h 89% 0.0 mm CLR
08:20 4.5 °C 2.8 °C 1028.7 hPa SSE 3.2 km/h   89% 0.0 mm CLR
08:25 4.4 °C 2.9 °C 1028.7 hPa SSE 3.2 km/h   90% 0.0 mm CLR
08:30 4.4 °C 2.9 °C 1028.7 hPa Calm     90% 0.0 mm CLR
08:35 4.4 °C 3.1 °C 1028.8 hPa Calm     91% 0.0 mm CLR
08:40 4.5 °C 3.2 °C 1028.8 hPa Calm   5.6 km/h 91% 0.0 mm CLR
08:45 4.5 °C 3.0 °C 1028.8 hPa Calm   7.4 km/h 90% 0.0 mm CLR
08:50 4.4 °C 2.9 °C 1029.0 hPa SSE 3.9 km/h 7.4 km/h 90% 0.0 mm CLR
08:55 4.4 °C 2.9 °C 1029.0 hPa South 3.9 km/h 7.4 km/h 90% 0.0 mm CLR
09:00 4.5 °C 3.0 °C 1029.0 hPa South 4.8 km/h 9.7 km/h 90% 0.0 mm CLR
09:05 4.7 °C 3.2 °C 1029.3 hPa SSW 5.8 km/h 7.4 km/h 90% 0.0 mm CLR
09:10 4.8 °C 3.4 °C 1029.3 hPa SSW 5.0 km/h 5.6 km/h 91% 0.0 mm CLR
09:15 5.1 °C 3.8 °C 1029.3 hPa SSW 5.0 km/h 3.9 km/h 91% 0.0 mm CLR
09:20 5.3 °C 3.8 °C 1029.5 hPa SSW 3.9 km/h 5.6 km/h 90% 0.0 mm CLR
09:25 5.4 °C 3.9 °C 1029.5 hPa SSW 3.9 km/h 7.6 km/h 90% 0.0 mm CLR
09:30 5.7 °C 4.0 °C 1029.5 hPa South 3.9 km/h 7.4 km/h 89% 0.0 mm CLR
09:35 5.8 °C 3.9 °C 1029.8 hPa SSW 3.9 km/h 7.4 km/h 88% 0.0 mm CLR
09:40 6.1 °C 4.3 °C 1029.8 hPa SSW 3.9 km/h 5.6 km/h 88% 0.0 mm CLR
09:45 6.3 °C 4.4 °C 1029.8 hPa SSW 3.9 km/h 7.4 km/h 88% 0.0 mm CLR
09:50 6.5 °C 4.5 °C 1030.1 hPa South 3.9 km/h 7.4 km/h 87% 0.0 mm CLR
09:55 6.8 °C 4.6 °C 1030.1 hPa South 3.9 km/h 7.6 km/h 86% 0.0 mm CLR
10:00 6.9 °C 4.7 °C 1030.1 hPa South 4.8 km/h 9.7 km/h 86% 0.0 mm CLR
10:05 7.2 °C 4.8 °C 1030.2 hPa SSW 5.0 km/h 6.9 km/h 85% 0.0 mm CLR
10:10 7.4 °C 4.9 °C 1030.2 hPa SSW 5.8 km/h 9.3 km/h 84% 0.0 mm CLR
10:15 7.6 °C 4.9 °C 1030.2 hPa SSW 5.8 km/h 7.4 km/h 83% 0.0 mm CLR
10:20 7.7 °C 4.8 °C 1030.5 hPa SSW 5.8 km/h 7.4 km/h 82% 0.0 mm CLR
10:25 7.9 °C 4.8 °C 1030.5 hPa SSW 5.8 km/h 11.1 km/h 81% 0.0 mm CLR
10:30 7.9 °C 4.8 °C 1030.5 hPa South 6.9 km/h 9.3 km/h 81% 0.0 mm CLR
10:35 8.2 °C 5.1 °C 1030.5 hPa SSW 6.9 km/h 7.4 km/h 81% 0.0 mm CLR
10:40 8.3 °C 5.1 °C 1030.5 hPa South 5.8 km/h 5.6 km/h 80% 0.0 mm CLR
10:45 8.6 °C 5.2 °C 1030.5 hPa SW 5.8 km/h 7.4 km/h 79% 0.0 mm CLR
10:50 8.8 °C 5.2 °C 1030.6 hPa SSW 3.2 km/h 9.3 km/h 78% 0.0 mm CLR
10:55 8.9 °C 5.3 °C 1030.6 hPa WSW 3.2 km/h 9.3 km/h 78% 0.0 mm CLR
11:00 8.9 °C 5.3 °C 1030.6 hPa SSW 4.8 km/h 9.7 km/h 78% 0.0 mm CLR
11:05 9.1 °C 5.4 °C 1030.7 hPa SSW 5.0 km/h 9.3 km/h 78% 0.0 mm CLR
11:10 9.0 °C 5.2 °C 1030.7 hPa WSW 6.4 km/h 3.7 km/h 77% 0.0 mm CLR
11:15 9.0 °C 5.2 °C 1030.7 hPa WSW 6.4 km/h 7.4 km/h 77% 0.0 mm FEW
11:20 9.2 °C 5.4 °C 1030.6 hPa WSW 4.7 km/h 9.3 km/h 77% 0.0 mm CLR
11:25 9.2 °C 5.2 °C 1030.6 hPa West 4.7 km/h 11.1 km/h 76% 0.0 mm FEW
11:30 9.2 °C 5.4 °C 1030.6 hPa SW 6.4 km/h 11.1 km/h 77% 0.0 mm CLR
11:35 9.4 °C 5.6 °C 1030.3 hPa SW 6.4 km/h 9.3 km/h 77% 0.0 mm FEW
11:40 9.6 °C 5.8 °C 1030.3 hPa SSW 5.0 km/h 11.1 km/h 77% 0.0 mm CLR
11:45 9.7 °C 5.7 °C 1030.3 hPa WSW 5.0 km/h 14.8 km/h 76% 0.0 mm FEW
11:50 9.7 °C 5.7 °C 1030.1 hPa WSW 6.9 km/h 11.1 km/h 76% 0.0 mm CLR
11:55 9.7 °C 5.7 °C 1030.1 hPa WSW 6.9 km/h 14.0 km/h 76% 0.0 mm FEW
12:00 9.8 °C 5.8 °C 1030.1 hPa WSW 9.7 km/h 14.5 km/h 76% 0.0 mm FEW
12:05 10.1 °C 6.1 °C 1029.8 hPa WSW 8.7 km/h 11.1 km/h 76% 0.0 mm FEW
12:10 10.2 °C 5.8 °C 1029.8 hPa SW 6.4 km/h 7.6 km/h 74% 0.0 mm CLR
12:15 10.4 °C 5.8 °C 1029.8 hPa SW 6.4 km/h 13.0 km/h 73% 0.0 mm CLR
12:20 10.5 °C 5.9 °C 1029.6 hPa West 6.4 km/h 9.5 km/h 73% 0.0 mm CLR
12:25 10.6 °C 5.8 °C 1029.6 hPa West 6.4 km/h 11.1 km/h 72% 0.0 mm CLR
12:30 10.7 °C 5.8 °C 1029.6 hPa WSW 6.4 km/h 14.8 km/h 72% 0.0 mm CLR
12:35 10.8 °C 5.9 °C 1029.0 hPa SW 6.4 km/h 13.7 km/h 72% 0.0 mm CLR
12:40 10.9 °C 6.1 °C 1029.0 hPa SW 8.7 km/h 9.3 km/h 72% 0.0 mm CLR
12:45 11.1 °C 6.1 °C 1029.0 hPa SSW 8.7 km/h 14.8 km/h 71% 0.0 mm CLR
12:50 11.1 °C 6.1 °C 1028.8 hPa SW 8.4 km/h 14.8 km/h 71% 0.0 mm CLR
12:55 11.2 °C 6.1 °C 1028.8 hPa SW 8.4 km/h 13.0 km/h 71% 0.0 mm CLR
13:00 11.3 °C 6.3 °C 1028.8 hPa SSW 8.0 km/h 11.3 km/h 71% 0.0 mm CLR
13:05 11.6 °C 6.3 °C 1028.6 hPa South 7.6 km/h 11.1 km/h 70% 0.0 mm CLR
13:10 11.7 °C 6.4 °C 1028.6 hPa SW 7.6 km/h 16.7 km/h 70% 0.0 mm CLR
13:15 11.7 °C 6.2 °C 1028.6 hPa SSW 7.6 km/h 16.7 km/h 69% 0.0 mm CLR
13:20 11.8 °C 6.3 °C 1028.3 hPa SW 9.5 km/h 11.1 km/h 69% 0.0 mm CLR
13:25 12.0 °C 6.5 °C 1028.3 hPa SSW 9.5 km/h 11.1 km/h 69% 0.0 mm CLR
13:30 12.1 °C 6.6 °C 1028.3 hPa SSW 7.6 km/h 11.1 km/h 69% 0.0 mm CLR
13:35 12.3 °C 6.6 °C 1028.2 hPa SSW 7.6 km/h 11.1 km/h 68% 0.0 mm CLR
13:40 12.4 °C 6.4 °C 1028.2 hPa South 6.9 km/h 9.3 km/h 67% 0.0 mm CLR
13:45 12.6 °C 6.6 °C 1028.2 hPa South 6.9 km/h 9.5 km/h 67% 0.0 mm CLR
13:50 12.6 °C 6.6 °C 1028.0 hPa SW 7.6 km/h 9.3 km/h 67% 0.0 mm CLR
13:55 12.8 °C 6.6 °C 1028.0 hPa SW 7.6 km/h 7.6 km/h 66% 0.0 mm CLR
14:00 12.9 °C 6.7 °C 1028.0 hPa WSW 8.0 km/h 9.7 km/h 66% 0.0 mm CLR
14:05 13.1 °C 6.7 °C 1027.8 hPa WNW 6.4 km/h 7.4 km/h 65% 0.0 mm CLR
14:10 13.2 °C 6.8 °C 1027.8 hPa SSW 3.2 km/h 9.3 km/h 65% 0.0 mm CLR
14:15 13.4 °C 6.5 °C 1027.8 hPa WSW 3.2 km/h 11.1 km/h 63% 0.0 mm CLR
14:20 13.6 °C 6.7 °C 1027.6 hPa SW 4.7 km/h 11.1 km/h 63% 0.0 mm CLR
14:25 13.7 °C 6.6 °C 1027.6 hPa South 4.7 km/h 9.3 km/h 62% 0.0 mm CLR
14:30 13.8 °C 6.7 °C 1027.6 hPa West 6.9 km/h 9.3 km/h 62% 0.0 mm CLR
14:35 13.9 °C 6.5 °C 1027.4 hPa SW 6.9 km/h 11.1 km/h 61% 0.0 mm CLR
14:40 14.0 °C 6.6 °C 1027.4 hPa South 5.8 km/h 14.8 km/h 61% 0.0 mm CLR
14:45 14.1 °C 6.4 °C 1027.4 hPa SW 5.8 km/h 12.2 km/h 60% 0.0 mm CLR
14:50 14.2 °C 6.6 °C 1027.4 hPa SSW 8.7 km/h 11.1 km/h 60% 0.0 mm CLR
14:55 14.4 °C 6.5 °C 1027.4 hPa WSW 8.7 km/h 11.1 km/h 59% 0.0 mm CLR
15:00 14.4 °C 6.5 °C 1027.4 hPa SW 8.0 km/h 9.7 km/h 59% 0.0 mm CLR
15:05 14.6 °C 6.7 °C 1027.5 hPa South 6.9 km/h 3.7 km/h 59% 0.0 mm CLR
15:10 14.8 °C 6.8 °C 1027.5 hPa WSW 3.9 km/h 7.4 km/h 59% 0.0 mm CLR
15:15 14.9 °C 6.7 °C 1027.5 hPa West 3.9 km/h 7.4 km/h 58% 0.0 mm CLR
15:20 15.1 °C 6.9 °C 1027.5 hPa WSW 3.9 km/h 5.8 km/h 58% 0.0 mm CLR
15:25 15.3 °C 6.8 °C 1027.5 hPa SSE 3.9 km/h 9.3 km/h 57% 0.0 mm CLR
15:30 15.3 °C 6.6 °C 1027.5 hPa SW 3.9 km/h 11.1 km/h 56% 0.0 mm CLR
15:35 15.3 °C 6.8 °C 1027.3 hPa SSE 3.9 km/h 8.4 km/h 57% 0.0 mm CLR
15:40 15.3 °C 6.6 °C 1027.3 hPa SSW 6.4 km/h 7.4 km/h 56% 0.0 mm CLR
15:45 15.3 °C 6.3 °C 1027.3 hPa SSW 6.4 km/h 13.0 km/h 55% 0.0 mm CLR
15:50 15.3 °C 6.3 °C 1027.3 hPa SW 6.9 km/h 11.1 km/h 55% 0.0 mm CLR
15:55 15.3 °C 6.3 °C 1027.3 hPa WSW 6.9 km/h 7.4 km/h 55% 0.0 mm CLR
16:00 15.4 °C 6.4 °C 1027.3 hPa WSW 8.0 km/h 11.3 km/h 55% 0.0 mm CLR
16:05 15.5 °C 6.8 °C 1027.4 hPa WSW 6.9 km/h 3.7 km/h 56% 0.0 mm CLR
16:10 15.7 °C 6.4 °C 1027.4 hPa SSW 4.7 km/h 9.3 km/h 54% 0.0 mm CLR
16:15 15.8 °C 6.5 °C 1027.4 hPa SW 4.7 km/h 3.7 km/h 54% 0.0 mm CLR
16:20 15.9 °C 6.6 °C 1027.4 hPa SW 4.7 km/h 3.7 km/h 54% 0.0 mm CLR
16:25 16.1 °C 6.8 °C 1027.4 hPa WSW 4.7 km/h 5.6 km/h 54% 0.0 mm CLR
16:30 16.1 °C 6.5 °C 1027.4 hPa SSE 3.2 km/h 7.4 km/h 53% 0.0 mm CLR
16:35 16.2 °C 6.6 °C 1027.5 hPa West 3.2 km/h 9.3 km/h 53% 0.0 mm CLR
16:40 16.2 °C 6.6 °C 1027.5 hPa WSW 4.7 km/h 5.8 km/h 53% 0.0 mm CLR
16:45 16.2 °C 6.3 °C 1027.5 hPa SW 4.7 km/h 9.3 km/h 52% 0.0 mm CLR
16:50 16.2 °C 6.3 °C 1027.5 hPa SW 5.0 km/h 7.4 km/h 52% 0.0 mm CLR
16:55 16.2 °C 6.3 °C 1027.5 hPa South 5.0 km/h 7.4 km/h 52% 0.0 mm CLR
17:00 16.2 °C 6.3 °C 1027.5 hPa SSW 3.2 km/h 8.0 km/h 52% 0.0 mm CLR
17:05 16.3 °C 6.4 °C 1027.5 hPa South 4.7 km/h 3.7 km/h 52% 0.0 mm CLR
17:10 16.3 °C 6.4 °C 1027.5 hPa SSW 2.3 km/h 5.6 km/h 52% 0.0 mm CLR
17:15 16.3 °C 6.4 °C 1027.5 hPa SSW 2.3 km/h 5.8 km/h 52% 0.0 mm CLR
17:20 16.3 °C 6.4 °C 1027.5 hPa SSW 3.9 km/h 3.7 km/h 52% 0.0 mm CLR
17:25 16.3 °C 6.4 °C 1027.5 hPa SSW 3.9 km/h 2.3 km/h 52% 0.0 mm CLR
17:29 16.2 °C 6.3 °C 1027.5 hPa SSW 2.3 km/h 5.6 km/h 52% 0.0 mm CLR
17:35 15.9 °C 6.6 °C 1027.6 hPa ESE 2.3 km/h 7.4 km/h 54% 0.0 mm CLR
17:40 15.6 °C 6.8 °C 1027.6 hPa ESE 3.9 km/h 7.4 km/h 56% 0.0 mm CLR
17:45 15.3 °C 7.1 °C 1027.6 hPa ESE 3.9 km/h 7.4 km/h 58% 0.0 mm CLR
17:50 15.1 °C 7.2 °C 1027.7 hPa East 4.7 km/h 7.4 km/h 59% 0.0 mm CLR
17:55 14.8 °C 7.1 °C 1027.7 hPa ESE 4.7 km/h 9.3 km/h 60% 0.0 mm CLR
18:00 14.6 °C 7.1 °C 1027.7 hPa East 3.2 km/h 9.7 km/h 61% 0.0 mm CLR
18:05 14.2 °C 7.5 °C 1027.9 hPa ESE 4.7 km/h 10.0 km/h 64% 0.0 mm CLR
18:10 13.8 °C 7.8 °C 1027.9 hPa SSE 6.4 km/h 11.1 km/h 67% 0.0 mm CLR
18:15 13.6 °C 8.0 °C 1027.9 hPa ESE 6.4 km/h 9.3 km/h 69% 0.0 mm CLR
18:20 13.4 °C 8.1 °C 1028.0 hPa SE 6.4 km/h 9.5 km/h 70% 0.0 mm CLR
18:25 13.1 °C 8.2 °C 1028.0 hPa ESE 6.4 km/h 7.4 km/h 72% 0.0 mm CLR
18:30 12.9 °C 8.2 °C 1028.0 hPa ESE 5.8 km/h 9.3 km/h 73% 0.0 mm CLR
18:35 12.8 °C 8.3 °C 1028.2 hPa SE 5.8 km/h 9.3 km/h 74% 0.0 mm CLR
18:40 12.7 °C 8.2 °C 1028.2 hPa SE 6.4 km/h 9.3 km/h 74% 0.0 mm CLR
18:45 12.6 °C 8.1 °C 1028.2 hPa SE 6.4 km/h 5.6 km/h 74% 0.0 mm CLR
18:50 12.6 °C 8.3 °C 1028.2 hPa SE 5.0 km/h 3.9 km/h 75% 0.0 mm CLR
18:55 12.5 °C 8.2 °C 1028.2 hPa SE 5.0 km/h 5.6 km/h 75% 0.0 mm CLR
19:00 12.4 °C 8.1 °C 1028.2 hPa SE 3.2 km/h 8.0 km/h 75% 0.0 mm CLR
19:05 12.3 °C 8.2 °C 1028.6 hPa SE 3.9 km/h 7.4 km/h 76% 0.0 mm CLR
19:10 12.3 °C 8.2 °C 1028.6 hPa SE 3.9 km/h 7.4 km/h 76% 0.0 mm CLR
19:15 12.2 °C 8.1 °C 1028.6 hPa SE 3.9 km/h 7.4 km/h 76% 0.0 mm CLR
19:20 12.2 °C 8.1 °C 1028.7 hPa SE 4.7 km/h 3.9 km/h 76% 0.0 mm CLR
19:25 12.1 °C 7.8 °C 1028.7 hPa SE 4.7 km/h 5.6 km/h 75% 0.0 mm CLR
19:30 12.0 °C 7.9 °C 1028.7 hPa SE 2.9 km/h   76% 0.0 mm CLR
19:35 11.9 °C 8.0 °C 1029.0 hPa SE 2.9 km/h 7.4 km/h 77% 0.0 mm CLR
19:40 11.8 °C 7.9 °C 1029.0 hPa SE 2.3 km/h 3.7 km/h 77% 0.0 mm CLR
19:45 11.7 °C 7.8 °C 1029.0 hPa WNW 2.3 km/h 1.9 km/h 77% 0.0 mm CLR
19:50 11.6 °C 7.7 °C 1029.2 hPa WNW 2.3 km/h   77% 0.0 mm CLR
19:55 11.4 °C 7.7 °C 1029.2 hPa WNW 2.3 km/h   78% 0.0 mm CLR
20:00 11.4 °C 7.7 °C 1029.2 hPa Calm     78% 0.0 mm CLR
20:05 11.4 °C 7.7 °C 1029.5 hPa Calm   6.4 km/h 78% 0.0 mm CLR
20:10 11.4 °C 7.7 °C 1029.5 hPa East 2.9 km/h 7.4 km/h 78% 0.0 mm CLR
20:15 11.4 °C 7.7 °C 1029.5 hPa East 2.9 km/h 5.8 km/h 78% 0.0 mm CLR
20:20 11.4 °C 7.7 °C 1029.6 hPa East 4.7 km/h 7.4 km/h 78% 0.0 mm CLR
20:25 11.3 °C 7.6 °C 1029.6 hPa ESE 4.7 km/h 5.6 km/h 78% 0.0 mm CLR
20:30 11.2 °C 7.7 °C 1029.6 hPa ESE 4.7 km/h 7.4 km/h 79% 0.0 mm CLR
20:35 11.2 °C 7.7 °C 1029.8 hPa ESE 4.7 km/h 9.3 km/h 79% 0.0 mm CLR
20:40 11.1 °C 7.6 °C 1029.8 hPa ESE 5.0 km/h 5.6 km/h 79% 0.0 mm CLR
20:45 11.0 °C 7.7 °C 1029.8 hPa ESE 5.0 km/h   80% 0.0 mm CLR
20:50 11.0 °C 7.9 °C 1029.9 hPa ESE 2.9 km/h 5.8 km/h 81% 0.0 mm CLR
20:55 11.2 °C 7.7 °C 1029.9 hPa ESE 2.9 km/h 3.7 km/h 79% 0.0 mm CLR
21:00 11.1 °C 7.6 °C 1029.9 hPa SE 3.2 km/h 9.7 km/h 79% 0.0 mm CLR
21:05 11.1 °C 7.8 °C 1029.8 hPa SW 3.2 km/h 5.6 km/h 80% 0.0 mm CLR
21:10 11.1 °C 7.6 °C 1029.8 hPa SW 5.0 km/h 5.6 km/h 79% 0.0 mm CLR
21:15 11.1 °C 7.6 °C 1029.8 hPa SW 5.0 km/h 7.4 km/h 79% 0.0 mm CLR
21:20 11.1 °C 7.4 °C 1029.9 hPa SW 3.9 km/h   78% 0.0 mm CLR
21:25 10.9 °C 7.2 °C 1029.9 hPa SW 3.9 km/h   78% 0.0 mm CLR
21:30 10.8 °C 7.1 °C 1029.9 hPa Calm     78% 0.0 mm CLR
21:35 10.5 °C 6.8 °C 1030.1 hPa Calm     78% 0.0 mm CLR
21:40 10.3 °C 6.6 °C 1030.1 hPa Calm     78% 0.0 mm CLR
21:45 10.0 °C 6.5 °C 1030.1 hPa Calm     79% 0.0 mm CLR
21:50 9.8 °C 6.5 °C 1030.2 hPa Calm     80% 0.0 mm CLR
21:55 9.7 °C 6.6 °C 1030.2 hPa Calm     81% 0.0 mm CLR
22:00 9.6 °C 6.3 °C 1030.2 hPa Calm   8.0 km/h 80% 0.0 mm CLR
22:05 9.4 °C 6.7 °C 1030.2 hPa Calm   3.7 km/h 83% 0.0 mm CLR
22:10 9.3 °C 6.7 °C 1030.2 hPa ESE 3.2 km/h 5.6 km/h 84% 0.0 mm CLR
22:15 9.3 °C 6.9 °C 1030.2 hPa ESE 3.2 km/h 5.6 km/h 85% 0.0 mm CLR
22:20 9.3 °C 6.7 °C 1030.3 hPa ESE 3.9 km/h 3.7 km/h 84% 0.0 mm CLR
22:25 9.3 °C 6.7 °C 1030.3 hPa ESE 3.9 km/h 7.4 km/h 84% 0.0 mm CLR
22:30 9.2 °C 6.6 °C 1030.3 hPa ESE 2.9 km/h 3.7 km/h 84% 0.0 mm CLR
22:35 9.2 °C 6.6 °C 1030.3 hPa SE 2.9 km/h 5.0 km/h 84% 0.0 mm CLR
22:40 9.1 °C 6.6 °C 1030.3 hPa South 2.3 km/h 7.4 km/h 84% 0.0 mm CLR
22:45 8.9 °C 6.5 °C 1030.3 hPa South 2.3 km/h 7.4 km/h 85% 0.0 mm CLR
22:50 8.8 °C 6.2 °C 1030.4 hPa SSW 5.0 km/h 5.6 km/h 84% 0.0 mm CLR
22:55 8.6 °C 6.2 °C 1030.4 hPa SW 5.0 km/h 7.4 km/h 85% 0.0 mm CLR
23:00 8.4 °C 6.0 °C 1030.4 hPa SSW 3.2 km/h 9.7 km/h 85% 0.0 mm CLR
23:05 8.3 °C 5.9 °C 1030.4 hPa SW 4.7 km/h 7.4 km/h 85% 0.0 mm CLR
23:10 8.2 °C 5.8 °C 1030.4 hPa SW 5.8 km/h 5.6 km/h 85% 0.0 mm CLR
23:15 8.1 °C 5.7 °C 1030.4 hPa SW 5.8 km/h 5.6 km/h 85% 0.0 mm CLR
23:20 8.1 °C 5.7 °C 1030.4 hPa SW 3.2 km/h 1.9 km/h 85% 0.0 mm CLR
23:25 8.1 °C 5.7 °C 1030.4 hPa SW 3.2 km/h 3.7 km/h 85% 0.0 mm CLR
23:30 8.0 °C 5.6 °C 1030.4 hPa Calm   3.9 km/h 85% 0.0 mm CLR
23:35 8.1 °C 5.7 °C 1030.4 hPa Calm   5.6 km/h 85% 0.0 mm CLR
23:40 8.1 °C 5.7 °C 1030.4 hPa SW 3.2 km/h 5.8 km/h 85% 0.0 mm CLR
23:45 8.1 °C 5.6 °C 1030.4 hPa SW 3.2 km/h 5.8 km/h 84% 0.0 mm CLR
23:50 7.9 °C 5.4 °C 1030.4 hPa South 3.9 km/h 8.7 km/h 84% 0.0 mm CLR
23:55 7.8 °C 5.4 °C 1030.4 hPa SSE 3.9 km/h 9.3 km/h 85% 0.0 mm CLR
Murcia-Puente Tocinos, España
Compliments of Weather Underground - 2.75 mb

La estación de MeteoMurcia.com, publica sus datos en los siguientes proyectos:

Weather Underground PWS IMURCIAP2 Meteoclimatic www.awekas.at

W3Counter
Web Analytics